No.3 Daieimaru — JD3430 — position and weather

sailwx.info

Track history (hours):
 
Tides and Currents Weather Stations Pressure Air Temp Water Temp Dewpoint Dewpoint Depression Visibility Wind Speed Wind Dir Waves Ship Positions

No.3 Daieimaru

Last reported at 2018-Feb-19 21:00 UTC. Time now 2018-Feb-19 21:28 UTC.
Position N 35°14' E 139°47'.

Length 90 m; draft 5 m.

Type: Tanker. MMSI: 431004049.

Date/timePositionNaut miles runAvg speedWind from/ knotsBaromVisibWave heightAir tempDewpointWater temp
2018-Feb-19 21:00N 35°14' E 139°47'612.5
2018-Feb-19 20:30N 35°08' E 139°46'713.0
2018-Feb-19 19:58N 35°02' E 139°42'713.3
2018-Feb-19 19:28N 34°58' E 139°36'1013.7
2018-Feb-19 18:43N 34°52' E 139°25'314.8
2018-Feb-19 18:30N 34°50' E 139°22'815.0
2018-Feb-19 17:59N 34°45' E 139°15'816.1
2018-Feb-19 17:30N 34°39' E 139°09'815.0
2018-Feb-19 16:58N 34°33' E 139°02'714.6
2018-Feb-19 16:30N 34°31' E 138°55'815.5
2018-Feb-19 15:58N 34°31' E 138°45'715.2
2018-Feb-19 15:29N 34°31' E 138°36'715.0
2018-Feb-19 14:59N 34°31' E 138°27'1015.1
2018-Feb-19 14:18N 34°30' E 138°14'715.3
2018-Feb-19 13:53N 34°31' E 138°06'614.8
2018-Feb-19 13:29N 34°31' E 137°59'3614.7
2018-Feb-19 11:00N 34°32' E 137°15'814.8
2018-Feb-19 10:28N 34°32' E 137°06'612.3
2018-Feb-19 10:00N 34°34' E 136°59'713.6
2018-Feb-19 09:30N 34°38' E 136°53'713.7
2018-Feb-19 09:00N 34°44' E 136°48'714.0
2018-Feb-19 08:30N 34°51' E 136°46'714.0
2018-Feb-19 08:01N 34°58' E 136°48'3 6.8
2018-Feb-19 07:30N 34°60' E 136°51'0 0.0
2018-Feb-19 07:00N 34°60' E 136°51'0 0.0
2018-Feb-19 06:30N 34°60' E 136°51'0 0.0
2018-Feb-19 06:00N 34°60' E 136°51'0 0.0
2018-Feb-19 05:31N 34°60' E 136°51'0 0.0
2018-Feb-19 05:00N 34°60' E 136°51'0 0.0
2018-Feb-19 04:30N 34°60' E 136°51'0 0.0
2018-Feb-19 04:00N 34°60' E 136°51'0 0.0
2018-Feb-19 03:31N 34°60' E 136°51'0 0.0
2018-Feb-19 03:00N 34°60' E 136°51'0 0.0
2018-Feb-19 02:31N 34°60' E 136°51'0 0.0
2018-Feb-19 02:00N 34°60' E 136°51'0 0.0
2018-Feb-19 01:30N 34°60' E 136°51'0 0.0
2018-Feb-19 01:00N 34°60' E 136°51'0 0.0
2018-Feb-19 00:30N 34°60' E 136°51'1 1.6
2018-Feb-19 00:00N 35°01' E 136°50'5 9.6
2018-Feb-18 23:30N 34°58' E 136°45'1 1.5
2018-Feb-18 23:00N 34°57' E 136°45'0 0.0
2018-Feb-18 22:30N 34°57' E 136°45'0 0.0
2018-Feb-18 22:00N 34°57' E 136°45'0 0.0
2018-Feb-18 21:30N 34°57' E 136°45'0 0.1
2018-Feb-18 21:00N 34°57' E 136°45'0 0.0
2018-Feb-18 20:30N 34°57' E 136°45'0 0.0
2018-Feb-18 20:00N 34°57' E 136°45'0 0.0
2018-Feb-18 19:30N 34°57' E 136°45'0 0.1
2018-Feb-18 19:00N 34°57' E 136°45'0 0.1
2018-Feb-18 18:30N 34°57' E 136°45'0 0.0
2018-Feb-18 18:00N 34°57' E 136°45'0 0.0
2018-Feb-18 17:30N 34°57' E 136°45'0 0.0
2018-Feb-18 17:00N 34°57' E 136°45'0 0.0
2018-Feb-18 16:30N 34°57' E 136°45'0 0.0
2018-Feb-18 16:00N 34°57' E 136°45'0 0.0
2018-Feb-18 15:30N 34°57' E 136°45'0 0.0
2018-Feb-18 15:01N 34°57' E 136°45'0 0.0
2018-Feb-18 14:28N 34°57' E 136°45'0 0.0
2018-Feb-18 14:00N 34°57' E 136°45'0 0.0
2018-Feb-18 13:30N 34°57' E 136°45'0 0.0
2018-Feb-18 13:00N 34°57' E 136°45'0 0.0
2018-Feb-18 12:30N 34°57' E 136°45'0 0.0
2018-Feb-18 12:01N 34°57' E 136°45'0 0.0
2018-Feb-18 11:30N 34°57' E 136°45'0 0.0
2018-Feb-18 11:01N 34°57' E 136°45'0 0.0
2018-Feb-18 10:31N 34°57' E 136°45'0 0.0
2018-Feb-18 10:00N 34°57' E 136°45'0 0.0
2018-Feb-18 09:30N 34°57' E 136°45'0 0.0
2018-Feb-18 09:00N 34°57' E 136°45'0 0.0
2018-Feb-18 08:30N 34°57' E 136°45'0 0.0
2018-Feb-18 08:00N 34°57' E 136°45'0 0.0
2018-Feb-18 07:29N 34°57' E 136°45'0 0.0
2018-Feb-18 07:00N 34°57' E 136°45'0 0.0
2018-Feb-18 06:30N 34°57' E 136°45'0 0.0
2018-Feb-18 06:00N 34°57' E 136°45'0 0.2
2018-Feb-18 05:30N 34°57' E 136°45'510.5
2018-Feb-18 05:00N 34°52' E 136°46'612.6
2018-Feb-18 04:30N 34°46' E 136°48'104 8.5
2018-Feb-17 16:17N 33°46' E 135°05'414.9
2018-Feb-17 16:00N 33°49' E 135°02'714.7
2018-Feb-17 15:30N 33°56' E 134°58'714.5
2018-Feb-17 15:00N 34°03' E 134°59'714.6
2018-Feb-17 14:30N 34°10' E 134°59'714.2
2018-Feb-17 14:00N 34°17' E 134°59'713.7
2018-Feb-17 13:31N 34°24' E 135°00'713.9
2018-Feb-17 13:00N 34°31' E 135°03'510.9
2018-Feb-17 12:30N 34°36' E 135°02'510.4
2018-Feb-17 11:59N 34°36' E 134°55'612.2
2018-Feb-17 11:30N 34°33' E 134°49'713.2
2018-Feb-17 11:01N 34°31' E 134°42'713.6
2018-Feb-17 10:30N 34°28' E 134°34'95 3.4
2018-Feb-16 06:13N 34°06' E 132°42'313.5
2018-Feb-16 06:00N 34°04' E 132°39'713.7
2018-Feb-16 05:29N 34°01' E 132°31'613.5
2018-Feb-16 05:00N 34°05' E 132°24'814.6
2018-Feb-16 04:29N 34°10' E 132°18'3 6.6
2018-Feb-16 03:58N 34°12' E 132°15'0 0.0
2018-Feb-16 03:30N 34°12' E 132°15'0 0.0
2018-Feb-16 03:00N 34°12' E 132°15'0 0.0
2018-Feb-16 02:30N 34°12' E 132°15'0 0.0
2018-Feb-16 02:00N 34°12' E 132°15'0 0.0
2018-Feb-16 01:30N 34°12' E 132°15'0 0.0
2018-Feb-16 01:00N 34°12' E 132°15'0 0.0
2018-Feb-16 00:30N 34°12' E 132°15'0 0.0
2018-Feb-16 00:00N 34°12' E 132°15'0 0.1
2018-Feb-15 23:30N 34°12' E 132°15'1 1.4
2018-Feb-15 23:00N 34°12' E 132°15'510.7
2018-Feb-15 22:30N 34°08' E 132°20'1113.9
2018-Feb-15 21:43N 34°01' E 132°31'314.0
2018-Feb-15 21:28N 34°03' E 132°34'714.0
2018-Feb-15 21:01N 34°06' E 132°41'7113.0
2018-Feb-15 15:35N 34°27' E 134°03'812.2
2018-Feb-15 14:54N 34°24' E 134°13'613.4
2018-Feb-15 14:28N 34°24' E 134°20'614.0
2018-Feb-15 14:01N 34°27' E 134°27'714.4
2018-Feb-15 13:31N 34°29' E 134°35'714.4
2018-Feb-15 13:00N 34°32' E 134°43'715.0
2018-Feb-15 12:30N 34°35' E 134°52'815.2
2018-Feb-15 12:00N 34°38' E 135°00'714.5
2018-Feb-15 11:31N 34°35' E 135°09'714.5
2018-Feb-15 11:00N 34°34' E 135°17'612.5
2018-Feb-15 10:31N 34°32' E 135°24'0 0.6
2018-Feb-15 10:00N 34°32' E 135°25'0 0.0
2018-Feb-15 09:31N 34°32' E 135°25'0 0.0
2018-Feb-15 09:00N 34°32' E 135°25'0 0.0
2018-Feb-15 08:29N 34°32' E 135°25'0 0.0
2018-Feb-15 08:01N 34°32' E 135°25'0 0.0
2018-Feb-15 07:31N 34°32' E 135°25'0 0.0
2018-Feb-15 07:00N 34°32' E 135°25'0 0.0
2018-Feb-15 06:30N 34°32' E 135°25'0 0.0
2018-Feb-15 06:00N 34°32' E 135°25'0 0.0
2018-Feb-15 05:31N 34°32' E 135°25'0 0.0
2018-Feb-15 05:01N 34°32' E 135°25'0 0.0
2018-Feb-15 04:30N 34°32' E 135°25'0 0.0
2018-Feb-15 04:01N 34°32' E 135°25'0 0.0
2018-Feb-15 03:31N 34°32' E 135°25'1 1.3
2018-Feb-15 03:01N 34°32' E 135°24'3 5.4
2018-Feb-15 02:30N 34°32' E 135°21'1 1.1
2018-Feb-15 02:00N 34°32' E 135°20'0 0.0
2018-Feb-15 01:31N 34°32' E 135°20'0 0.0
2018-Feb-15 01:00N 34°32' E 135°20'0 0.0
2018-Feb-15 00:31N 34°32' E 135°20'0 0.0
2018-Feb-15 00:00N 34°32' E 135°20'0 0.0
2018-Feb-14 23:31N 34°32' E 135°20'0 0.0
2018-Feb-14 23:00N 34°32' E 135°20'0 0.0
2018-Feb-14 22:31N 34°32' E 135°20'0 0.0
2018-Feb-14 22:00N 34°32' E 135°20'0 0.0
2018-Feb-14 21:31N 34°32' E 135°20'4 8.5
2018-Feb-14 21:00N 34°30' E 135°16'714.6
2018-Feb-14 20:31N 34°26' E 135°08'714.9
2018-Feb-14 20:01N 34°21' E 135°01'714.4
2018-Feb-14 19:30N 34°14' E 134°60'714.1
2018-Feb-14 19:01N 34°07' E 135°00'714.3
2018-Feb-14 18:30N 33°60' E 135°01'814.0
2018-Feb-14 17:57N 33°52' E 135°02'107 9.8
2018-Feb-14 06:58N 34°33' E 137°01'713.1
2018-Feb-14 06:25N 34°37' E 136°54'613.7
2018-Feb-14 06:00N 34°41' E 136°49'714.3
2018-Feb-14 05:30N 34°48' E 136°46'714.2
2018-Feb-14 05:00N 34°55' E 136°46'714.1
2018-Feb-14 04:30N 35°01' E 136°50'510.0
2018-Feb-14 04:01N 35°05' E 136°53'0 0.0
2018-Feb-14 03:31N 35°05' E 136°53'0 0.0
2018-Feb-14 02:59N 35°05' E 136°53'0 0.0
2018-Feb-14 02:31N 35°05' E 136°53'0 0.0
2018-Feb-14 02:00N 35°05' E 136°53'0 0.0
2018-Feb-14 01:30N 35°05' E 136°53'0 0.0
2018-Feb-14 01:01N 35°05' E 136°53'0 0.0
2018-Feb-14 00:30N 35°05' E 136°53'0 0.0
2018-Feb-14 00:00N 35°05' E 136°53'0 0.0
2018-Feb-13 23:31N 35°05' E 136°53'0 0.3
2018-Feb-13 23:01N 35°05' E 136°53'4 7.2
2018-Feb-13 22:30N 35°02' E 136°51'612.0
2018-Feb-13 22:00N 34°57' E 136°46'1 1.6
2018-Feb-13 21:30N 34°57' E 136°45'0 0.0
2018-Feb-13 21:01N 34°57' E 136°45'0 0.0
2018-Feb-13 20:30N 34°57' E 136°45'0 0.0
2018-Feb-13 20:01N 34°57' E 136°45'0 0.0
2018-Feb-13 19:30N 34°57' E 136°45'0 0.0
2018-Feb-13 19:01N 34°57' E 136°45'0 0.0
2018-Feb-13 18:31N 34°57' E 136°45'0 0.0
2018-Feb-13 18:01N 34°57' E 136°45'0 0.1
2018-Feb-13 17:31N 34°57' E 136°45'0 0.1
2018-Feb-13 17:01N 34°57' E 136°45'0 0.1
2018-Feb-13 16:31N 34°57' E 136°45'0 0.0
2018-Feb-13 16:01N 34°57' E 136°45'0 0.0
2018-Feb-13 15:30N 34°57' E 136°45'0 0.0
2018-Feb-13 15:01N 34°57' E 136°45'0 0.0
2018-Feb-13 14:30N 34°57' E 136°45'0 0.0
2018-Feb-13 14:01N 34°57' E 136°45'0 0.0
2018-Feb-13 13:30N 34°57' E 136°45'0 0.0
2018-Feb-13 13:01N 34°57' E 136°45'0 0.0
2018-Feb-13 12:31N 34°57' E 136°45'0 0.1
2018-Feb-13 12:01N 34°57' E 136°45'0 0.0
2018-Feb-13 11:30N 34°57' E 136°45'0 0.0
2018-Feb-13 11:00N 34°57' E 136°45'0 0.0
2018-Feb-13 10:31N 34°57' E 136°45'0 0.0
2018-Feb-13 10:01N 34°57' E 136°45'0 0.0
2018-Feb-13 09:30N 34°57' E 136°45'0 0.0
2018-Feb-13 09:00N 34°57' E 136°45'0 0.0
2018-Feb-13 08:31N 34°57' E 136°45'0 0.1
2018-Feb-13 08:00N 34°57' E 136°45'0 0.0
2018-Feb-13 07:30N 34°57' E 136°45'0 0.1
2018-Feb-13 07:01N 34°57' E 136°45'1 2.0
2018-Feb-13 06:31N 34°58' E 136°46'4 8.3
2018-Feb-13 06:00N 34°60' E 136°51'0 0.0
2018-Feb-13 05:31N 34°60' E 136°51'0 0.0
2018-Feb-13 04:59N 34°60' E 136°51'0 0.0
2018-Feb-13 04:31N 34°60' E 136°51'0 0.0
2018-Feb-13 03:59N 34°60' E 136°51'0 0.0
2018-Feb-13 03:30N 34°60' E 136°51'0 0.0
2018-Feb-13 03:01N 34°60' E 136°51'0 0.0
2018-Feb-13 02:31N 34°60' E 136°51'0 0.0
2018-Feb-13 02:01N 34°60' E 136°51'0 0.0
2018-Feb-13 01:31N 34°60' E 136°51'0 0.0
2018-Feb-13 01:00N 34°60' E 136°51'0 0.0
2018-Feb-13 00:31N 34°60' E 136°51'0 0.0
2018-Feb-13 00:01N 34°60' E 136°51'0 0.6
2018-Feb-12 23:31N 35°00' E 136°50'4 8.0
2018-Feb-12 23:00N 34°57' E 136°47'1 2.6
2018-Feb-12 22:31N 34°57' E 136°45'0 0.0
2018-Feb-12 22:00N 34°57' E 136°45'0 0.0
2018-Feb-12 21:30N 34°57' E 136°45'0 0.0
2018-Feb-12 21:00N 34°57' E 136°45'0 0.0
2018-Feb-12 20:31N 34°57' E 136°45'0 0.0
2018-Feb-12 20:01N 34°57' E 136°45'0 0.0
2018-Feb-12 19:31N 34°57' E 136°45'0 0.0
2018-Feb-12 19:01N 34°57' E 136°45'0 0.0
2018-Feb-12 18:30N 34°57' E 136°45'0 0.0
2018-Feb-12 17:59N 34°57' E 136°45'0 0.0
2018-Feb-12 17:30N 34°57' E 136°45'0 0.0
2018-Feb-12 17:00N 34°57' E 136°45'0 0.0
2018-Feb-12 16:30N 34°57' E 136°45'0 0.0
2018-Feb-12 16:01N 34°57' E 136°45'0 0.0
2018-Feb-12 15:31N 34°57' E 136°45'0 0.0
2018-Feb-12 15:01N 34°57' E 136°45'0 0.0
2018-Feb-12 14:31N 34°57' E 136°45'0 0.0
2018-Feb-12 14:01N 34°57' E 136°45'0 0.0
2018-Feb-12 13:31N 34°57' E 136°45'0 0.0
2018-Feb-12 13:01N 34°57' E 136°45'0 0.0
2018-Feb-12 12:30N 34°57' E 136°45'0 0.0
2018-Feb-12 12:01N 34°57' E 136°45'0 0.0
2018-Feb-12 11:30N 34°57' E 136°45'0 0.0
2018-Feb-12 11:01N 34°57' E 136°45'0 0.0
2018-Feb-12 10:30N 34°57' E 136°45'0 0.0
2018-Feb-12 10:00N 34°57' E 136°45'0 0.0
2018-Feb-12 09:30N 34°57' E 136°45'0 0.0
2018-Feb-12 09:01N 34°57' E 136°45'0 0.0
2018-Feb-12 08:30N 34°57' E 136°45'0 0.0
2018-Feb-12 08:01N 34°57' E 136°45'0 0.0
2018-Feb-12 07:31N 34°57' E 136°45'0 0.0
2018-Feb-12 07:01N 34°57' E 136°45'0 0.0
2018-Feb-12 06:31N 34°57' E 136°45'0 0.0
2018-Feb-12 06:00N 34°57' E 136°45'0 0.0
2018-Feb-12 05:30N 34°57' E 136°45'0 0.0
2018-Feb-12 05:01N 34°57' E 136°45'0 0.0
2018-Feb-12 04:30N 34°57' E 136°45'0 0.0
2018-Feb-12 04:01N 34°57' E 136°45'0 0.0
2018-Feb-12 03:30N 34°57' E 136°45'0 0.0
2018-Feb-12 03:01N 34°57' E 136°45'0 1.0
2018-Feb-12 02:30N 34°57' E 136°46'611.9
2018-Feb-12 02:00N 34°51' E 136°47'612.5
2018-Feb-12 01:30N 34°44' E 136°49'104 8.9
2018-Feb-11 13:51N 33°46' E 135°05'514.8
2018-Feb-11 13:30N 33°50' E 135°01'714.4
2018-Feb-11 13:00N 33°57' E 134°59'714.6
2018-Feb-11 12:30N 34°04' E 134°59'714.6
2018-Feb-11 12:01N 34°12' E 134°59'714.8
2018-Feb-11 11:30N 34°19' E 134°59'714.2
2018-Feb-11 11:01N 34°26' E 135°01'714.1
2018-Feb-11 10:30N 34°33' E 135°04'611.5
2018-Feb-11 10:00N 34°37' E 134°59'713.4
2018-Feb-11 09:30N 34°34' E 134°52'713.6
2018-Feb-11 09:01N 34°32' E 134°44'713.8
2018-Feb-11 08:31N 34°29' E 134°37'713.9
2018-Feb-11 07:59N 34°26' E 134°28'85 4.8
2018-Feb-10 14:14N 34°04' E 132°49'313.6
2018-Feb-10 14:00N 34°02' E 132°47'713.2
2018-Feb-10 13:30N 33°56' E 132°42'813.2
2018-Feb-10 12:55N 33°51' E 132°35'813.6
2018-Feb-10 12:19N 33°47' E 132°27'714.1
2018-Feb-10 11:48N 33°44' E 132°19'414.3
2018-Feb-10 11:30N 33°42' E 132°14'1114.1
2018-Feb-10 10:44N 33°42' E 132°01'314.6
2018-Feb-10 10:30N 33°43' E 131°57'714.7
2018-Feb-10 10:00N 33°45' E 131°49'714.9
2018-Feb-10 09:31N 33°46' E 131°40'714.9
2018-Feb-10 09:00N 33°48' E 131°31'714.7
2018-Feb-10 08:30N 33°49' E 131°22'714.3
2018-Feb-10 08:00N 33°51' E 131°14'714.1
2018-Feb-10 07:30N 33°54' E 131°07'714.0
2018-Feb-10 07:00N 33°58' E 130°60'612.4
2018-Feb-10 06:30N 33°54' E 130°54'510.9
2018-Feb-10 06:01N 33°59' E 130°50'612.0
2018-Feb-10 05:31N 34°02' E 130°44'714.3
2018-Feb-10 05:01N 34°00' E 130°36'714.0
2018-Feb-10 04:31N 33°57' E 130°29'713.5
2018-Feb-10 04:00N 33°53' E 130°22'713.8
2018-Feb-10 03:30N 33°47' E 130°19'713.2
2018-Feb-10 03:00N 33°41' E 130°17'613.0
2018-Feb-10 02:30N 33°37' E 130°23'1 1.8
2018-Feb-10 02:00N 33°36' E 130°23'0 0.0
2018-Feb-10 01:30N 33°36' E 130°23'0 0.0
2018-Feb-10 01:00N 33°36' E 130°23'0 0.0
2018-Feb-10 00:30N 33°36' E 130°23'0 0.0
2018-Feb-10 00:00N 33°36' E 130°23'0 0.0
2018-Feb-09 23:30N 33°36' E 130°23'1 1.5
2018-Feb-09 23:00N 33°37' E 130°23'2 7.7
2018-Feb-09 22:46N 33°38' E 130°21'8 4.7
2018-Feb-09 21:00N 33°45' E 130°16'  
Track history (hours):
 
Tides and Currents Weather Stations Pressure Air Temp Water Temp Dewpoint Dewpoint Depression Visibility Wind Speed Wind Dir Waves Ship Positions

No.3 Daieimaru

Last reported at 2018-Feb-19 21:00 UTC. Time now 2018-Feb-19 21:28 UTC.
Position N 35°14' E 139°47'.

Length 90 m; draft 5 m.

Type: Tanker. MMSI: 431004049.

Date/timePositionNaut miles runAvg speedWind from/ knotsBaromVisibWave heightAir tempDewpointWater temp
2018-Feb-19 21:00N 35°14' E 139°47'612.5
2018-Feb-19 20:30N 35°08' E 139°46'713.0
2018-Feb-19 19:58N 35°02' E 139°42'713.3
2018-Feb-19 19:28N 34°58' E 139°36'1013.7
2018-Feb-19 18:43N 34°52' E 139°25'314.8
2018-Feb-19 18:30N 34°50' E 139°22'815.0
2018-Feb-19 17:59N 34°45' E 139°15'816.1
2018-Feb-19 17:30N 34°39' E 139°09'815.0
2018-Feb-19 16:58N 34°33' E 139°02'714.6
2018-Feb-19 16:30N 34°31' E 138°55'815.5
2018-Feb-19 15:58N 34°31' E 138°45'715.2
2018-Feb-19 15:29N 34°31' E 138°36'715.0
2018-Feb-19 14:59N 34°31' E 138°27'1015.1
2018-Feb-19 14:18N 34°30' E 138°14'715.3
2018-Feb-19 13:53N 34°31' E 138°06'614.8
2018-Feb-19 13:29N 34°31' E 137°59'3614.7
2018-Feb-19 11:00N 34°32' E 137°15'814.8
2018-Feb-19 10:28N 34°32' E 137°06'612.3
2018-Feb-19 10:00N 34°34' E 136°59'713.6
2018-Feb-19 09:30N 34°38' E 136°53'713.7
2018-Feb-19 09:00N 34°44' E 136°48'714.0
2018-Feb-19 08:30N 34°51' E 136°46'714.0
2018-Feb-19 08:01N 34°58' E 136°48'3 6.8
2018-Feb-19 07:30N 34°60' E 136°51'0 0.0
2018-Feb-19 07:00N 34°60' E 136°51'0 0.0
2018-Feb-19 06:30N 34°60' E 136°51'0 0.0
2018-Feb-19 06:00N 34°60' E 136°51'0 0.0
2018-Feb-19 05:31N 34°60' E 136°51'0 0.0
2018-Feb-19 05:00N 34°60' E 136°51'0 0.0
2018-Feb-19 04:30N 34°60' E 136°51'0 0.0
2018-Feb-19 04:00N 34°60' E 136°51'0 0.0
2018-Feb-19 03:31N 34°60' E 136°51'0 0.0
2018-Feb-19 03:00N 34°60' E 136°51'0 0.0
2018-Feb-19 02:31N 34°60' E 136°51'0 0.0
2018-Feb-19 02:00N 34°60' E 136°51'0 0.0
2018-Feb-19 01:30N 34°60' E 136°51'0 0.0
2018-Feb-19 01:00N 34°60' E 136°51'0 0.0
2018-Feb-19 00:30N 34°60' E 136°51'1 1.6
2018-Feb-19 00:00N 35°01' E 136°50'5 9.6
2018-Feb-18 23:30N 34°58' E 136°45'1 1.5
2018-Feb-18 23:00N 34°57' E 136°45'0 0.0
2018-Feb-18 22:30N 34°57' E 136°45'0 0.0
2018-Feb-18 22:00N 34°57' E 136°45'0 0.0
2018-Feb-18 21:30N 34°57' E 136°45'0 0.1
2018-Feb-18 21:00N 34°57' E 136°45'0 0.0
2018-Feb-18 20:30N 34°57' E 136°45'0 0.0
2018-Feb-18 20:00N 34°57' E 136°45'0 0.0
2018-Feb-18 19:30N 34°57' E 136°45'0 0.1
2018-Feb-18 19:00N 34°57' E 136°45'0 0.1
2018-Feb-18 18:30N 34°57' E 136°45'0 0.0
2018-Feb-18 18:00N 34°57' E 136°45'0 0.0
2018-Feb-18 17:30N 34°57' E 136°45'0 0.0
2018-Feb-18 17:00N 34°57' E 136°45'0 0.0
2018-Feb-18 16:30N 34°57' E 136°45'0 0.0
2018-Feb-18 16:00N 34°57' E 136°45'0 0.0
2018-Feb-18 15:30N 34°57' E 136°45'0 0.0
2018-Feb-18 15:01N 34°57' E 136°45'0 0.0
2018-Feb-18 14:28N 34°57' E 136°45'0 0.0
2018-Feb-18 14:00N 34°57' E 136°45'0 0.0
2018-Feb-18 13:30N 34°57' E 136°45'0 0.0
2018-Feb-18 13:00N 34°57' E 136°45'0 0.0
2018-Feb-18 12:30N 34°57' E 136°45'0 0.0
2018-Feb-18 12:01N 34°57' E 136°45'0 0.0
2018-Feb-18 11:30N 34°57' E 136°45'0 0.0
2018-Feb-18 11:01N 34°57' E 136°45'0 0.0
2018-Feb-18 10:31N 34°57' E 136°45'0 0.0
2018-Feb-18 10:00N 34°57' E 136°45'0 0.0
2018-Feb-18 09:30N 34°57' E 136°45'0 0.0
2018-Feb-18 09:00N 34°57' E 136°45'0 0.0
2018-Feb-18 08:30N 34°57' E 136°45'0 0.0
2018-Feb-18 08:00N 34°57' E 136°45'0 0.0
2018-Feb-18 07:29N 34°57' E 136°45'0 0.0
2018-Feb-18 07:00N 34°57' E 136°45'0 0.0
2018-Feb-18 06:30N 34°57' E 136°45'0 0.0
2018-Feb-18 06:00N 34°57' E 136°45'0 0.2
2018-Feb-18 05:30N 34°57' E 136°45'510.5
2018-Feb-18 05:00N 34°52' E 136°46'612.6
2018-Feb-18 04:30N 34°46' E 136°48'104 8.5
2018-Feb-17 16:17N 33°46' E 135°05'414.9
2018-Feb-17 16:00N 33°49' E 135°02'714.7
2018-Feb-17 15:30N 33°56' E 134°58'714.5
2018-Feb-17 15:00N 34°03' E 134°59'714.6
2018-Feb-17 14:30N 34°10' E 134°59'714.2
2018-Feb-17 14:00N 34°17' E 134°59'713.7
2018-Feb-17 13:31N 34°24' E 135°00'713.9
2018-Feb-17 13:00N 34°31' E 135°03'510.9
2018-Feb-17 12:30N 34°36' E 135°02'510.4
2018-Feb-17 11:59N 34°36' E 134°55'612.2
2018-Feb-17 11:30N 34°33' E 134°49'713.2
2018-Feb-17 11:01N 34°31' E 134°42'713.6
2018-Feb-17 10:30N 34°28' E 134°34'95 3.4
2018-Feb-16 06:13N 34°06' E 132°42'313.5
2018-Feb-16 06:00N 34°04' E 132°39'713.7
2018-Feb-16 05:29N 34°01' E 132°31'613.5
2018-Feb-16 05:00N 34°05' E 132°24'814.6
2018-Feb-16 04:29N 34°10' E 132°18'3 6.6
2018-Feb-16 03:58N 34°12' E 132°15'0 0.0
2018-Feb-16 03:30N 34°12' E 132°15'0 0.0
2018-Feb-16 03:00N 34°12' E 132°15'0 0.0
2018-Feb-16 02:30N 34°12' E 132°15'0 0.0
2018-Feb-16 02:00N 34°12' E 132°15'0 0.0
2018-Feb-16 01:30N 34°12' E 132°15'0 0.0
2018-Feb-16 01:00N 34°12' E 132°15'0 0.0
2018-Feb-16 00:30N 34°12' E 132°15'0 0.0
2018-Feb-16 00:00N 34°12' E 132°15'0 0.1
2018-Feb-15 23:30N 34°12' E 132°15'1 1.4
2018-Feb-15 23:00N 34°12' E 132°15'510.7
2018-Feb-15 22:30N 34°08' E 132°20'1113.9
2018-Feb-15 21:43N 34°01' E 132°31'314.0
2018-Feb-15 21:28N 34°03' E 132°34'714.0
2018-Feb-15 21:01N 34°06' E 132°41'7113.0
2018-Feb-15 15:35N 34°27' E 134°03'812.2
2018-Feb-15 14:54N 34°24' E 134°13'613.4
2018-Feb-15 14:28N 34°24' E 134°20'614.0
2018-Feb-15 14:01N 34°27' E 134°27'714.4
2018-Feb-15 13:31N 34°29' E 134°35'714.4
2018-Feb-15 13:00N 34°32' E 134°43'715.0
2018-Feb-15 12:30N 34°35' E 134°52'815.2
2018-Feb-15 12:00N 34°38' E 135°00'714.5
2018-Feb-15 11:31N 34°35' E 135°09'714.5
2018-Feb-15 11:00N 34°34' E 135°17'612.5
2018-Feb-15 10:31N 34°32' E 135°24'0 0.6
2018-Feb-15 10:00N 34°32' E 135°25'0 0.0
2018-Feb-15 09:31N 34°32' E 135°25'0 0.0
2018-Feb-15 09:00N 34°32' E 135°25'0 0.0
2018-Feb-15 08:29N 34°32' E 135°25'0 0.0
2018-Feb-15 08:01N 34°32' E 135°25'0 0.0
2018-Feb-15 07:31N 34°32' E 135°25'0 0.0
2018-Feb-15 07:00N 34°32' E 135°25'0 0.0
2018-Feb-15 06:30N 34°32' E 135°25'0 0.0
2018-Feb-15 06:00N 34°32' E 135°25'0 0.0
2018-Feb-15 05:31N 34°32' E 135°25'0 0.0
2018-Feb-15 05:01N 34°32' E 135°25'0 0.0
2018-Feb-15 04:30N 34°32' E 135°25'0 0.0
2018-Feb-15 04:01N 34°32' E 135°25'0 0.0
2018-Feb-15 03:31N 34°32' E 135°25'1 1.3
2018-Feb-15 03:01N 34°32' E 135°24'3 5.4
2018-Feb-15 02:30N 34°32' E 135°21'1 1.1
2018-Feb-15 02:00N 34°32' E 135°20'0 0.0
2018-Feb-15 01:31N 34°32' E 135°20'0 0.0
2018-Feb-15 01:00N 34°32' E 135°20'0 0.0
2018-Feb-15 00:31N 34°32' E 135°20'0 0.0
2018-Feb-15 00:00N 34°32' E 135°20'0 0.0
2018-Feb-14 23:31N 34°32' E 135°20'0 0.0
2018-Feb-14 23:00N 34°32' E 135°20'0 0.0
2018-Feb-14 22:31N 34°32' E 135°20'0 0.0
2018-Feb-14 22:00N 34°32' E 135°20'0 0.0
2018-Feb-14 21:31N 34°32' E 135°20'4 8.5
2018-Feb-14 21:00N 34°30' E 135°16'714.6
2018-Feb-14 20:31N 34°26' E 135°08'714.9
2018-Feb-14 20:01N 34°21' E 135°01'714.4
2018-Feb-14 19:30N 34°14' E 134°60'714.1
2018-Feb-14 19:01N 34°07' E 135°00'714.3
2018-Feb-14 18:30N 33°60' E 135°01'814.0
2018-Feb-14 17:57N 33°52' E 135°02'107 9.8
2018-Feb-14 06:58N 34°33' E 137°01'713.1
2018-Feb-14 06:25N 34°37' E 136°54'613.7
2018-Feb-14 06:00N 34°41' E 136°49'714.3
2018-Feb-14 05:30N 34°48' E 136°46'714.2
2018-Feb-14 05:00N 34°55' E 136°46'714.1
2018-Feb-14 04:30N 35°01' E 136°50'510.0
2018-Feb-14 04:01N 35°05' E 136°53'0 0.0
2018-Feb-14 03:31N 35°05' E 136°53'0 0.0
2018-Feb-14 02:59N 35°05' E 136°53'0 0.0
2018-Feb-14 02:31N 35°05' E 136°53'0 0.0
2018-Feb-14 02:00N 35°05' E 136°53'0 0.0
2018-Feb-14 01:30N 35°05' E 136°53'0 0.0
2018-Feb-14 01:01N 35°05' E 136°53'0 0.0
2018-Feb-14 00:30N 35°05' E 136°53'0 0.0
2018-Feb-14 00:00N 35°05' E 136°53'0 0.0
2018-Feb-13 23:31N 35°05' E 136°53'0 0.3
2018-Feb-13 23:01N 35°05' E 136°53'4 7.2
2018-Feb-13 22:30N 35°02' E 136°51'612.0
2018-Feb-13 22:00N 34°57' E 136°46'1 1.6
2018-Feb-13 21:30N 34°57' E 136°45'0 0.0
2018-Feb-13 21:01N 34°57' E 136°45'0 0.0
2018-Feb-13 20:30N 34°57' E 136°45'0 0.0
2018-Feb-13 20:01N 34°57' E 136°45'0 0.0
2018-Feb-13 19:30N 34°57' E 136°45'0 0.0
2018-Feb-13 19:01N 34°57' E 136°45'0 0.0
2018-Feb-13 18:31N 34°57' E 136°45'0 0.0
2018-Feb-13 18:01N 34°57' E 136°45'0 0.1
2018-Feb-13 17:31N 34°57' E 136°45'0 0.1
2018-Feb-13 17:01N 34°57' E 136°45'0 0.1
2018-Feb-13 16:31N 34°57' E 136°45'0 0.0
2018-Feb-13 16:01N 34°57' E 136°45'0 0.0
2018-Feb-13 15:30N 34°57' E 136°45'0 0.0
2018-Feb-13 15:01N 34°57' E 136°45'0 0.0
2018-Feb-13 14:30N 34°57' E 136°45'0 0.0
2018-Feb-13 14:01N 34°57' E 136°45'0 0.0
2018-Feb-13 13:30N 34°57' E 136°45'0 0.0
2018-Feb-13 13:01N 34°57' E 136°45'0 0.0
2018-Feb-13 12:31N 34°57' E 136°45'0 0.1
2018-Feb-13 12:01N 34°57' E 136°45'0 0.0
2018-Feb-13 11:30N 34°57' E 136°45'0 0.0
2018-Feb-13 11:00N 34°57' E 136°45'0 0.0
2018-Feb-13 10:31N 34°57' E 136°45'0 0.0
2018-Feb-13 10:01N 34°57' E 136°45'0 0.0
2018-Feb-13 09:30N 34°57' E 136°45'0 0.0
2018-Feb-13 09:00N 34°57' E 136°45'0 0.0
2018-Feb-13 08:31N 34°57' E 136°45'0 0.1
2018-Feb-13 08:00N 34°57' E 136°45'0 0.0
2018-Feb-13 07:30N 34°57' E 136°45'0 0.1
2018-Feb-13 07:01N 34°57' E 136°45'1 2.0
2018-Feb-13 06:31N 34°58' E 136°46'4 8.3
2018-Feb-13 06:00N 34°60' E 136°51'0 0.0
2018-Feb-13 05:31N 34°60' E 136°51'0 0.0
2018-Feb-13 04:59N 34°60' E 136°51'0 0.0
2018-Feb-13 04:31N 34°60' E 136°51'0 0.0
2018-Feb-13 03:59N 34°60' E 136°51'0 0.0
2018-Feb-13 03:30N 34°60' E 136°51'0 0.0
2018-Feb-13 03:01N 34°60' E 136°51'0 0.0
2018-Feb-13 02:31N 34°60' E 136°51'0 0.0
2018-Feb-13 02:01N 34°60' E 136°51'0 0.0
2018-Feb-13 01:31N 34°60' E 136°51'0 0.0
2018-Feb-13 01:00N 34°60' E 136°51'0 0.0
2018-Feb-13 00:31N 34°60' E 136°51'0 0.0
2018-Feb-13 00:01N 34°60' E 136°51'0 0.6
2018-Feb-12 23:31N 35°00' E 136°50'4 8.0
2018-Feb-12 23:00N 34°57' E 136°47'1 2.6
2018-Feb-12 22:31N 34°57' E 136°45'0 0.0
2018-Feb-12 22:00N 34°57' E 136°45'0 0.0
2018-Feb-12 21:30N 34°57' E 136°45'0 0.0
2018-Feb-12 21:00N 34°57' E 136°45'0 0.0
2018-Feb-12 20:31N 34°57' E 136°45'0 0.0
2018-Feb-12 20:01N 34°57' E 136°45'0 0.0
2018-Feb-12 19:31N 34°57' E 136°45'0 0.0
2018-Feb-12 19:01N 34°57' E 136°45'0 0.0
2018-Feb-12 18:30N 34°57' E 136°45'0 0.0
2018-Feb-12 17:59N 34°57' E 136°45'0 0.0
2018-Feb-12 17:30N 34°57' E 136°45'0 0.0
2018-Feb-12 17:00N 34°57' E 136°45'0 0.0
2018-Feb-12 16:30N 34°57' E 136°45'0 0.0
2018-Feb-12 16:01N 34°57' E 136°45'0 0.0
2018-Feb-12 15:31N 34°57' E 136°45'0 0.0
2018-Feb-12 15:01N 34°57' E 136°45'0 0.0
2018-Feb-12 14:31N 34°57' E 136°45'0 0.0
2018-Feb-12 14:01N 34°57' E 136°45'0 0.0
2018-Feb-12 13:31N 34°57' E 136°45'0 0.0
2018-Feb-12 13:01N 34°57' E 136°45'0 0.0
2018-Feb-12 12:30N 34°57' E 136°45'0 0.0
2018-Feb-12 12:01N 34°57' E 136°45'0 0.0
2018-Feb-12 11:30N 34°57' E 136°45'0 0.0
2018-Feb-12 11:01N 34°57' E 136°45'0 0.0
2018-Feb-12 10:30N 34°57' E 136°45'0 0.0
2018-Feb-12 10:00N 34°57' E 136°45'0 0.0
2018-Feb-12 09:30N 34°57' E 136°45'0 0.0
2018-Feb-12 09:01N 34°57' E 136°45'0 0.0
2018-Feb-12 08:30N 34°57' E 136°45'0 0.0
2018-Feb-12 08:01N 34°57' E 136°45'0 0.0
2018-Feb-12 07:31N 34°57' E 136°45'0 0.0
2018-Feb-12 07:01N 34°57' E 136°45'0 0.0
2018-Feb-12 06:31N 34°57' E 136°45'0 0.0
2018-Feb-12 06:00N 34°57' E 136°45'0 0.0
2018-Feb-12 05:30N 34°57' E 136°45'0 0.0
2018-Feb-12 05:01N 34°57' E 136°45'0 0.0
2018-Feb-12 04:30N 34°57' E 136°45'0 0.0
2018-Feb-12 04:01N 34°57' E 136°45'0 0.0
2018-Feb-12 03:30N 34°57' E 136°45'0 0.0
2018-Feb-12 03:01N 34°57' E 136°45'0 1.0
2018-Feb-12 02:30N 34°57' E 136°46'611.9
2018-Feb-12 02:00N 34°51' E 136°47'612.5
2018-Feb-12 01:30N 34°44' E 136°49'104 8.9
2018-Feb-11 13:51N 33°46' E 135°05'514.8
2018-Feb-11 13:30N 33°50' E 135°01'714.4
2018-Feb-11 13:00N 33°57' E 134°59'714.6
2018-Feb-11 12:30N 34°04' E 134°59'714.6
2018-Feb-11 12:01N 34°12' E 134°59'714.8
2018-Feb-11 11:30N 34°19' E 134°59'714.2
2018-Feb-11 11:01N 34°26' E 135°01'714.1
2018-Feb-11 10:30N 34°33' E 135°04'611.5
2018-Feb-11 10:00N 34°37' E 134°59'713.4
2018-Feb-11 09:30N 34°34' E 134°52'713.6
2018-Feb-11 09:01N 34°32' E 134°44'713.8
2018-Feb-11 08:31N 34°29' E 134°37'713.9
2018-Feb-11 07:59N 34°26' E 134°28'85 4.8
2018-Feb-10 14:14N 34°04' E 132°49'313.6
2018-Feb-10 14:00N 34°02' E 132°47'713.2
2018-Feb-10 13:30N 33°56' E 132°42'813.2
2018-Feb-10 12:55N 33°51' E 132°35'813.6
2018-Feb-10 12:19N 33°47' E 132°27'714.1
2018-Feb-10 11:48N 33°44' E 132°19'414.3
2018-Feb-10 11:30N 33°42' E 132°14'1114.1
2018-Feb-10 10:44N 33°42' E 132°01'314.6
2018-Feb-10 10:30N 33°43' E 131°57'714.7
2018-Feb-10 10:00N 33°45' E 131°49'714.9
2018-Feb-10 09:31N 33°46' E 131°40'714.9
2018-Feb-10 09:00N 33°48' E 131°31'714.7
2018-Feb-10 08:30N 33°49' E 131°22'714.3
2018-Feb-10 08:00N 33°51' E 131°14'714.1
2018-Feb-10 07:30N 33°54' E 131°07'714.0
2018-Feb-10 07:00N 33°58' E 130°60'612.4
2018-Feb-10 06:30N 33°54' E 130°54'510.9
2018-Feb-10 06:01N 33°59' E 130°50'612.0
2018-Feb-10 05:31N 34°02' E 130°44'714.3
2018-Feb-10 05:01N 34°00' E 130°36'714.0
2018-Feb-10 04:31N 33°57' E 130°29'713.5
2018-Feb-10 04:00N 33°53' E 130°22'713.8
2018-Feb-10 03:30N 33°47' E 130°19'713.2
2018-Feb-10 03:00N 33°41' E 130°17'613.0
2018-Feb-10 02:30N 33°37' E 130°23'1 1.8
2018-Feb-10 02:00N 33°36' E 130°23'0 0.0
2018-Feb-10 01:30N 33°36' E 130°23'0 0.0
2018-Feb-10 01:00N 33°36' E 130°23'0 0.0
2018-Feb-10 00:30N 33°36' E 130°23'0 0.0
2018-Feb-10 00:00N 33°36' E 130°23'0 0.0
2018-Feb-09 23:30N 33°36' E 130°23'1 1.5
2018-Feb-09 23:00N 33°37' E 130°23'2 7.7
2018-Feb-09 22:46N 33°38' E 130°21'8 4.7
2018-Feb-09 21:00N 33°45' E 130°16'  

Dump ship's entire track history